Time;durP1;ratioP1;P1;durP2;ratioP2;P2;SDS_P1;SDS_P2;PMS_P1;PMS_P2;Temp;Humidity;BMP_temperature;BMP_pressure;BME280_temperature;BME280_humidity;BME280_pressure;Samples;Min_cycle;Max_cycle;Signal;HPM_P1;HPM_P2
2021/12/05 00:22:50;;;;;;;;;;;4.10;87.90;;;;;;5134989;27;19923;-79
2021/12/05 00:25:24;;;;;;;;;;;4.00;88.20;;;;;;5136209;27;20391;-79
2021/12/05 00:46:54;;;;;;;;;;;3.80;89.60;;;;;;5136120;27;20024;-80
2021/12/05 01:16:41;;;;;;;;;;;3.70;90.50;;;;;;5093372;28;19931;-78
2021/12/05 01:19:13;;;;;;;;;;;3.80;90.50;;;;;;5093068;28;20558;-80
2021/12/05 01:21:45;;;;;;;;;;;3.70;90.40;;;;;;5076993;28;19925;-80
2021/12/05 01:27:05;;;;;;;;;;;3.70;90.60;;;;;;5092915;28;20373;-80
2021/12/05 01:38:06;;;;;;;;;;;3.80;90.50;;;;;;5112644;27;19932;-79
2021/12/05 01:40:52;;;;;;;;;;;3.80;90.60;;;;;;5116698;27;19924;-78
2021/12/05 01:44:10;;;;;;;;;;;3.80;90.50;;;;;;5116663;27;19986;-79
2021/12/05 01:52:29;;;;;;;;;;;3.80;89.90;;;;;;5115927;27;19924;-78
2021/12/05 01:55:22;;;;;;;;;;;3.80;90.00;;;;;;5125319;27;19922;-79
2021/12/05 02:39:36;;;;;;;;;;;3.50;90.60;;;;;;5115676;27;19923;-79
2021/12/05 02:42:14;;;;;;;;;;;3.50;90.70;;;;;;5115511;28;19927;-77
2021/12/05 02:44:42;;;;;;;;;;;3.50;90.80;;;;;;5133733;28;20277;-77
2021/12/05 02:47:19;;;;;;;;;;;3.50;91.00;;;;;;5115227;28;20265;-77
2021/12/05 02:49:49;;;;;;;;;;;3.60;91.00;;;;;;5133792;28;19935;-78
2021/12/05 02:52:26;;;;;;;;;;;3.50;91.10;;;;;;5115325;28;20361;-79
2021/12/05 02:54:56;;;;;;;;;;;3.60;91.20;;;;;;5124021;27;19927;-80
2021/12/05 03:00:32;;;;;;;;;;;3.60;91.30;;;;;;5128508;27;19923;-80
2021/12/05 03:03:02;;;;;;;;;;;3.60;91.30;;;;;;5134820;27;19923;-82
2021/12/05 03:05:30;;;;;;;;;;;3.50;91.40;;;;;;5138565;27;19930;-81
2021/12/05 03:08:01;;;;;;;;;;;3.50;91.30;;;;;;5133529;27;19938;-81
2021/12/05 03:10:30;;;;;;;;;;;3.50;91.50;;;;;;5118214;27;19923;-82
2021/12/05 03:12:58;;;;;;;;;;;3.60;91.70;;;;;;5119814;27;19931;-84
2021/12/05 03:15:27;;;;;;;;;;;3.50;91.50;;;;;;5120976;27;19924;-85
2021/12/05 03:17:54;;;;;;;;;;;3.50;91.20;;;;;;5139122;27;19928;-85
2021/12/05 03:20:22;;;;;;;;;;;3.50;91.30;;;;;;5138387;27;20498;-83
2021/12/05 03:22:50;;;;;;;;;;;3.50;91.40;;;;;;5118682;27;20384;-81
2021/12/05 03:25:20;;;;;;;;;;;3.50;91.60;;;;;;5119298;27;20280;-78
2021/12/05 03:27:47;;;;;;;;;;;3.40;91.60;;;;;;5119348;27;19924;-80
2021/12/05 03:30:19;;;;;;;;;;;3.50;91.60;;;;;;5118699;27;19934;-78
2021/12/05 03:32:50;;;;;;;;;;;3.50;91.70;;;;;;5118986;27;19931;-78
2021/12/05 03:35:22;;;;;;;;;;;3.50;91.60;;;;;;5129205;27;20570;-78
2021/12/05 03:37:50;;;;;;;;;;;3.60;91.50;;;;;;5120122;27;19930;-78
2021/12/05 03:40:19;;;;;;;;;;;3.60;91.60;;;;;;5102020;27;19946;-77
2021/12/05 03:42:47;;;;;;;;;;;3.60;91.50;;;;;;5118646;27;20430;-77
2021/12/05 03:45:19;;;;;;;;;;;3.60;91.50;;;;;;5118628;27;19927;-77
2021/12/05 03:47:47;;;;;;;;;;;3.70;91.50;;;;;;5118736;27;19924;-76
2021/12/05 03:50:15;;;;;;;;;;;3.70;91.50;;;;;;5118259;27;20462;-77
2021/12/05 03:52:46;;;;;;;;;;;3.70;91.40;;;;;;5118303;27;19930;-76
2021/12/05 03:55:14;;;;;;;;;;;3.70;91.40;;;;;;5118200;27;20378;-77
2021/12/05 03:57:41;;;;;;;;;;;3.70;91.40;;;;;;5117649;27;19953;-77
2021/12/05 04:00:15;;;;;;;;;;;3.70;91.20;;;;;;5118695;27;20399;-77
2021/12/05 04:02:47;;;;;;;;;;;3.80;91.00;;;;;;5136558;27;20260;-76
2021/12/05 04:05:22;;;;;;;;;;;3.80;90.70;;;;;;5118348;27;19930;-76
2021/12/05 04:07:49;;;;;;;;;;;3.80;90.60;;;;;;5135307;27;19935;-78
2021/12/05 04:10:19;;;;;;;;;;;3.80;90.50;;;;;;5111450;27;19923;-77
2021/12/05 04:12:48;;;;;;;;;;;3.80;90.50;;;;;;5157619;27;20303;-77
2021/12/05 04:15:15;;;;;;;;;;;3.80;90.30;;;;;;5156880;27;19934;-78
2021/12/05 04:17:42;;;;;;;;;;;3.80;90.10;;;;;;5157032;27;19930;-78
2021/12/05 04:20:11;;;;;;;;;;;3.90;89.70;;;;;;5134792;27;19923;-77
2021/12/05 04:22:40;;;;;;;;;;;3.90;89.60;;;;;;5136195;27;19930;-78
2021/12/05 04:25:12;;;;;;;;;;;3.90;89.30;;;;;;5117790;27;19923;-77
2021/12/05 04:27:41;;;;;;;;;;;3.90;89.40;;;;;;5117725;27;19930;-77
2021/12/05 04:30:10;;;;;;;;;;;3.80;89.50;;;;;;5117841;27;19931;-77
2021/12/05 04:32:39;;;;;;;;;;;3.80;89.70;;;;;;5117699;27;19923;-77
2021/12/05 04:35:07;;;;;;;;;;;3.80;89.90;;;;;;5117555;27;19923;-78
2021/12/05 04:37:35;;;;;;;;;;;3.80;90.00;;;;;;5117507;27;19942;-78
2021/12/05 04:40:04;;;;;;;;;;;3.80;89.80;;;;;;5100838;27;19931;-77
2021/12/05 04:42:33;;;;;;;;;;;3.80;89.80;;;;;;5117203;27;19924;-78
2021/12/05 04:45:06;;;;;;;;;;;3.70;90.00;;;;;;5117627;27;19924;-78
2021/12/05 04:47:33;;;;;;;;;;;3.70;90.20;;;;;;5143539;27;19923;-78
2021/12/05 04:50:04;;;;;;;;;;;3.60;90.40;;;;;;5137287;27;19923;-79
2021/12/05 04:52:32;;;;;;;;;;;3.60;90.50;;;;;;5155452;27;19930;-79
2021/12/05 04:54:59;;;;;;;;;;;3.50;90.50;;;;;;5128711;27;19930;-78
2021/12/05 04:57:27;;;;;;;;;;;3.50;90.70;;;;;;5100720;27;20388;-79
2021/12/05 04:59:55;;;;;;;;;;;3.40;90.80;;;;;;5125109;27;19930;-78
2021/12/05 05:02:22;;;;;;;;;;;3.40;91.00;;;;;;5137988;27;19923;-79
2021/12/05 05:04:50;;;;;;;;;;;3.40;91.10;;;;;;5137699;27;19924;-78
2021/12/05 05:07:25;;;;;;;;;;;3.40;91.20;;;;;;5156172;27;19930;-78
2021/12/05 05:09:53;;;;;;;;;;;3.40;91.20;;;;;;5137347;27;19930;-77
2021/12/05 05:12:21;;;;;;;;;;;3.40;91.40;;;;;;5156312;27;19930;-78
2021/12/05 05:14:50;;;;;;;;;;;3.40;91.40;;;;;;5155687;27;19934;-78
2021/12/05 05:17:18;;;;;;;;;;;3.40;91.40;;;;;;5155503;27;20371;-77
2021/12/05 05:19:50;;;;;;;;;;;3.50;91.20;;;;;;5137414;27;19923;-78
2021/12/05 05:28:03;;;;;;;;;;;3.50;91.00;;;;;;5122660;27;20372;-77
2021/12/05 05:30:55;;;;;;;;;;;3.50;90.80;;;;;;5155501;27;19930;-77
2021/12/05 05:44:44;;;;;;;;;;;3.50;89.70;;;;;;5154573;27;19934;-78
2021/12/05 05:47:25;;;;;;;;;;;3.50;89.80;;;;;;5155465;27;19972;-78
2021/12/05 05:49:59;;;;;;;;;;;3.50;89.90;;;;;;5140599;27;19930;-78
2021/12/05 05:52:29;;;;;;;;;;;3.60;89.60;;;;;;5136952;27;19923;-79
2021/12/05 05:54:58;;;;;;;;;;;3.60;89.50;;;;;;5142354;27;19930;-77
2021/12/05 05:57:30;;;;;;;;;;;3.60;89.40;;;;;;5134503;27;20332;-77
2021/12/05 06:05:13;;;;;;;;;;;3.60;89.20;;;;;;5134548;27;19938;-78
2021/12/05 06:07:43;;;;;;;;;;;3.60;88.80;;;;;;5133597;27;19924;-78
2021/12/05 06:10:13;;;;;;;;;;;3.60;88.70;;;;;;5133456;27;19930;-78
2021/12/05 06:12:41;;;;;;;;;;;3.60;88.20;;;;;;5134275;27;19938;-78
2021/12/05 06:15:12;;;;;;;;;;;3.60;88.20;;;;;;5134085;27;19924;-79
2021/12/05 06:17:40;;;;;;;;;;;3.60;88.40;;;;;;5134243;27;19930;-79
2021/12/05 06:20:12;;;;;;;;;;;3.70;88.00;;;;;;5115812;27;20315;-78
2021/12/05 06:22:39;;;;;;;;;;;3.60;87.90;;;;;;5133823;27;20421;-78
2021/12/05 06:25:10;;;;;;;;;;;3.60;87.70;;;;;;5133257;27;19934;-78
2021/12/05 06:27:38;;;;;;;;;;;3.70;87.50;;;;;;5134014;27;19949;-78
2021/12/05 06:30:11;;;;;;;;;;;3.70;87.70;;;;;;5133349;27;19923;-78
2021/12/05 06:38:33;;;;;;;;;;;3.70;87.10;;;;;;5115463;28;20368;-78
2021/12/05 06:41:22;;;;;;;;;;;3.70;87.00;;;;;;5133203;27;19934;-78
2021/12/05 06:46:27;;;;;;;;;;;3.80;86.60;;;;;;5133689;27;19924;-78
2021/12/05 06:48:54;;;;;;;;;;;3.80;86.00;;;;;;5135602;27;19924;-78
2021/12/05 06:51:24;;;;;;;;;;;3.80;85.90;;;;;;5144348;27;19930;-78
2021/12/05 06:53:52;;;;;;;;;;;3.80;86.00;;;;;;5125124;27;20399;-78
2021/12/05 06:56:20;;;;;;;;;;;3.80;85.90;;;;;;5143970;27;19923;-79
2021/12/05 06:58:48;;;;;;;;;;;3.80;85.60;;;;;;5142396;27;19957;-78
2021/12/05 07:01:15;;;;;;;;;;;3.80;85.70;;;;;;5124435;27;19923;-78
2021/12/05 07:03:45;;;;;;;;;;;3.80;85.90;;;;;;5141838;27;20315;-78
2021/12/05 07:06:23;;;;;;;;;;;3.80;85.90;;;;;;5141614;27;19931;-78
2021/12/05 07:08:55;;;;;;;;;;;3.80;85.70;;;;;;5133639;28;19924;-79
2021/12/05 07:11:27;;;;;;;;;;;3.80;85.50;;;;;;5133505;28;19923;-78
2021/12/05 07:22:21;;;;;;;;;;;3.80;85.50;;;;;;5051656;28;20386;-78
2021/12/05 07:24:53;;;;;;;;;;;3.90;85.60;;;;;;5050201;28;19925;-78
2021/12/05 07:41:41;;;;;;;;;;;3.90;84.60;;;;;;5053189;28;19948;-78
2021/12/05 07:44:00;;;;;;;;;;;3.90;85.00;;;;;;5068952;28;20392;-78
2021/12/05 07:46:27;;;;;;;;;;;3.90;85.40;;;;;;5052689;28;19935;-79
2021/12/05 07:48:55;;;;;;;;;;;3.80;85.60;;;;;;5069722;28;19991;-78
2021/12/05 07:51:28;;;;;;;;;;;3.80;86.00;;;;;;5073539;28;19924;-78
2021/12/05 08:15:46;;;;;;;;;;;3.40;87.20;;;;;;5136328;27;19923;-79
2021/12/05 08:18:14;;;;;;;;;;;3.50;87.40;;;;;;5118021;27;20296;-78
2021/12/05 08:20:42;;;;;;;;;;;3.40;87.60;;;;;;5136453;27;19946;-78
2021/12/05 08:23:12;;;;;;;;;;;3.40;87.40;;;;;;5135228;27;19932;-77
2021/12/05 08:25:41;;;;;;;;;;;3.50;87.40;;;;;;5135432;27;19923;-78
2021/12/05 08:31:12;;;;;;;;;;;3.40;87.60;;;;;;5156981;27;19930;-78
2021/12/05 08:41:53;;;;;;;;;;;3.50;87.30;;;;;;5135592;27;19924;-80
2021/12/05 09:28:18;;;;;;;;;;;3.80;86.20;;;;;;5146115;27;19935;-76
2021/12/05 10:11:52;;;;;;;;;;;4.40;84.20;;;;;;5133438;27;19931;-76
2021/12/05 10:14:42;;;;;;;;;;;4.30;84.40;;;;;;5119051;27;19927;-75
2021/12/05 10:34:03;;;;;;;;;;;4.60;83.20;;;;;;5108885;28;19924;-78
2021/12/05 10:36:34;;;;;;;;;;;4.60;83.10;;;;;;5109398;28;20407;-79
2021/12/05 10:39:09;;;;;;;;;;;4.70;83.10;;;;;;5092949;28;19924;-79
2021/12/05 10:44:11;;;;;;;;;;;4.70;82.60;;;;;;5090038;28;20068;-78
2021/12/05 10:46:39;;;;;;;;;;;4.70;83.00;;;;;;5056190;28;20408;-78
2021/12/05 10:49:11;;;;;;;;;;;4.80;83.00;;;;;;5089323;28;19924;-79
2021/12/05 10:51:57;;;;;;;;;;;4.80;82.80;;;;;;5072978;28;20285;-78
2021/12/05 10:54:26;;;;;;;;;;;4.80;83.00;;;;;;5089660;28;19924;-78
2021/12/05 10:56:59;;;;;;;;;;;4.90;82.70;;;;;;5089752;28;19999;-77
2021/12/05 10:59:35;;;;;;;;;;;4.90;82.90;;;;;;5072833;28;19924;-80
2021/12/05 11:02:04;;;;;;;;;;;5.00;82.30;;;;;;5093699;28;19924;-79
2021/12/05 11:04:39;;;;;;;;;;;5.00;82.20;;;;;;5106867;28;19942;-81
2021/12/05 11:07:07;;;;;;;;;;;5.10;82.30;;;;;;5133707;28;19923;-79
2021/12/05 11:09:38;;;;;;;;;;;5.20;82.60;;;;;;5133164;28;19931;-80
2021/12/05 11:12:11;;;;;;;;;;;5.20;82.10;;;;;;5133408;28;19923;-79
2021/12/05 11:14:40;;;;;;;;;;;5.30;82.30;;;;;;5133418;28;20407;-79
2021/12/05 11:17:10;;;;;;;;;;;5.30;81.80;;;;;;5133341;28;19931;-78
2021/12/05 11:19:40;;;;;;;;;;;5.40;81.80;;;;;;5132527;28;19924;-79
2021/12/05 11:22:15;;;;;;;;;;;5.50;81.60;;;;;;5133080;28;19923;-80
2021/12/05 11:24:43;;;;;;;;;;;5.50;81.20;;;;;;5134381;27;19946;-80
2021/12/05 11:27:16;;;;;;;;;;;5.70;80.90;;;;;;5137203;27;19930;-81
2021/12/05 11:29:46;;;;;;;;;;;5.80;80.90;;;;;;5118431;27;19938;-81
2021/12/05 11:32:19;;;;;;;;;;;5.80;80.50;;;;;;5136213;27;19923;-80
2021/12/05 11:34:47;;;;;;;;;;;5.80;80.30;;;;;;5136389;27;19923;-81
2021/12/05 11:37:15;;;;;;;;;;;6.10;79.90;;;;;;5117804;27;19930;-81
2021/12/05 11:39:43;;;;;;;;;;;6.20;79.30;;;;;;5136070;27;19930;-82
2021/12/05 11:42:12;;;;;;;;;;;6.20;78.90;;;;;;5118876;27;19931;-82
2021/12/05 11:44:41;;;;;;;;;;;6.00;79.40;;;;;;5136459;27;19934;-82
2021/12/05 11:47:13;;;;;;;;;;;5.90;79.50;;;;;;5118409;27;19923;-78
2021/12/05 11:49:41;;;;;;;;;;;5.80;79.70;;;;;;5137055;27;19923;-79
2021/12/05 11:52:09;;;;;;;;;;;5.70;79.90;;;;;;5136178;27;19930;-78
2021/12/05 11:54:43;;;;;;;;;;;5.60;80.00;;;;;;5118541;27;20383;-79
2021/12/05 11:57:16;;;;;;;;;;;5.60;80.10;;;;;;5137187;27;19924;-80
2021/12/05 11:59:45;;;;;;;;;;;5.50;80.60;;;;;;5136818;27;20121;-80
2021/12/05 12:02:20;;;;;;;;;;;5.50;80.80;;;;;;5101020;27;19923;-80
2021/12/05 12:04:57;;;;;;;;;;;5.50;80.80;;;;;;5118523;27;20304;-79
2021/12/05 12:07:34;;;;;;;;;;;5.40;80.50;;;;;;5101427;27;19923;-79
2021/12/05 12:10:08;;;;;;;;;;;5.40;80.90;;;;;;5144064;27;20398;-81
2021/12/05 12:12:36;;;;;;;;;;;5.40;81.00;;;;;;5157321;27;19923;-80
2021/12/05 12:15:05;;;;;;;;;;;5.40;81.20;;;;;;5156548;27;20289;-80
2021/12/05 12:17:32;;;;;;;;;;;5.40;81.60;;;;;;5157149;27;19930;-79
2021/12/05 12:19:59;;;;;;;;;;;5.30;81.60;;;;;;5157216;27;19927;-79
2021/12/05 12:22:27;;;;;;;;;;;5.40;81.60;;;;;;5138546;27;19923;-79
2021/12/05 12:24:56;;;;;;;;;;;5.40;81.50;;;;;;5157122;27;19923;-79
2021/12/05 12:27:24;;;;;;;;;;;5.40;81.60;;;;;;5155967;27;19930;-82
2021/12/05 12:29:54;;;;;;;;;;;5.50;81.60;;;;;;5156761;27;19931;-80
2021/12/05 12:32:25;;;;;;;;;;;5.50;81.70;;;;;;5157083;27;19931;-81
2021/12/05 12:35:05;;;;;;;;;;;5.70;81.10;;;;;;5138678;27;20376;-81
2021/12/05 12:37:51;;;;;;;;;;;5.80;80.80;;;;;;5156538;27;19930;-81
2021/12/05 12:40:34;;;;;;;;;;;5.90;80.50;;;;;;5156885;27;19934;-81
2021/12/05 12:43:02;;;;;;;;;;;5.80;80.60;;;;;;5155749;27;19968;-81
2021/12/05 12:45:35;;;;;;;;;;;5.80;80.30;;;;;;5160856;27;19930;-81
2021/12/05 12:48:03;;;;;;;;;;;5.70;80.20;;;;;;5167982;27;19923;-81
2021/12/05 12:50:35;;;;;;;;;;;5.70;80.00;;;;;;5168745;27;19927;-81
2021/12/05 12:53:02;;;;;;;;;;;5.60;79.90;;;;;;5152902;27;19923;-81
2021/12/05 12:55:32;;;;;;;;;;;5.60;80.20;;;;;;5139582;27;19927;-83
2021/12/05 12:58:03;;;;;;;;;;;5.60;80.30;;;;;;5121931;27;20272;-81
2021/12/05 13:00:32;;;;;;;;;;;5.50;80.50;;;;;;5139886;27;19934;-83
2021/12/05 13:03:13;;;;;;;;;;;5.50;80.60;;;;;;5121020;27;19927;-82
2021/12/05 13:07:17;;;;;;;;;;;5.50;80.70;;;;;;5156819;27;19931;-83
2021/12/05 13:11:48;;;;;;;;;;;5.50;80.90;;;;;;5137691;27;20292;-82
2021/12/05 13:14:16;;;;;;;;;;;5.40;81.20;;;;;;5156905;27;19930;-82
2021/12/05 13:16:47;;;;;;;;;;;5.30;81.10;;;;;;5155952;27;19930;-82
2021/12/05 13:19:22;;;;;;;;;;;5.30;81.40;;;;;;5156742;27;19930;-82
2021/12/05 13:22:02;;;;;;;;;;;5.30;81.10;;;;;;5156482;27;19923;-81
2021/12/05 13:24:33;;;;;;;;;;;5.30;81.60;;;;;;5156401;27;19930;-81
2021/12/05 13:27:03;;;;;;;;;;;5.30;81.40;;;;;;5155594;27;19923;-81
2021/12/05 13:29:32;;;;;;;;;;;5.30;81.30;;;;;;5141990;27;20373;-81
2021/12/05 13:32:10;;;;;;;;;;;5.30;81.40;;;;;;5154932;27;19923;-82
2021/12/05 13:34:41;;;;;;;;;;;5.30;81.40;;;;;;5155741;27;19929;-81
2021/12/05 13:37:09;;;;;;;;;;;5.30;81.60;;;;;;5119894;27;20288;-82
2021/12/05 13:39:47;;;;;;;;;;;5.30;81.90;;;;;;5136798;27;19923;-82
2021/12/05 13:42:25;;;;;;;;;;;5.30;82.00;;;;;;5155183;27;19923;-82
2021/12/05 13:44:58;;;;;;;;;;;5.40;82.00;;;;;;5155509;27;19923;-82
2021/12/05 13:47:29;;;;;;;;;;;5.40;81.70;;;;;;5119293;27;20376;-82
2021/12/05 13:49:57;;;;;;;;;;;5.50;81.30;;;;;;5154807;27;20411;-82
2021/12/05 13:52:28;;;;;;;;;;;5.50;81.30;;;;;;5154393;27;19923;-82
2021/12/05 13:55:14;;;;;;;;;;;5.50;80.70;;;;;;5137099;27;20406;-82
2021/12/05 13:58:00;;;;;;;;;;;5.50;81.00;;;;;;5155471;27;20492;-82
2021/12/05 14:00:37;;;;;;;;;;;5.50;81.30;;;;;;5155472;27;20314;-82
2021/12/05 14:03:05;;;;;;;;;;;5.50;81.60;;;;;;5153434;27;19937;-83
2021/12/05 14:05:33;;;;;;;;;;;5.50;81.70;;;;;;5154520;27;19930;-83
2021/12/05 14:08:01;;;;;;;;;;;5.40;81.60;;;;;;5154982;27;19997;-83
2021/12/05 14:10:41;;;;;;;;;;;5.40;81.80;;;;;;5154490;27;19923;-82
2021/12/05 14:13:08;;;;;;;;;;;5.40;82.10;;;;;;5154555;27;19923;-82
2021/12/05 14:15:36;;;;;;;;;;;5.40;82.20;;;;;;5124545;27;20391;-81
2021/12/05 14:18:04;;;;;;;;;;;5.30;82.00;;;;;;5147594;27;20393;-83
2021/12/05 14:20:31;;;;;;;;;;;5.30;82.10;;;;;;5132904;27;19931;-80
2021/12/05 14:23:04;;;;;;;;;;;5.30;82.20;;;;;;5123698;27;19930;-81
2021/12/05 14:25:32;;;;;;;;;;;5.30;82.20;;;;;;5115205;27;19928;-82
2021/12/05 14:28:02;;;;;;;;;;;5.30;82.50;;;;;;5120744;27;19939;-83
2021/12/05 14:30:32;;;;;;;;;;;5.30;82.40;;;;;;5147445;27;19918;-82
2021/12/05 14:33:02;;;;;;;;;;;5.30;82.40;;;;;;5135672;27;19930;-82
2021/12/05 14:35:33;;;;;;;;;;;5.40;82.40;;;;;;5142135;27;19935;-82
2021/12/05 14:38:04;;;;;;;;;;;5.30;82.50;;;;;;5143643;27;19923;-82
2021/12/05 14:40:32;;;;;;;;;;;5.40;82.40;;;;;;5144486;27;20384;-82
2021/12/05 14:43:04;;;;;;;;;;;5.30;82.50;;;;;;5135848;27;19932;-82
2021/12/05 14:45:36;;;;;;;;;;;5.30;82.70;;;;;;5128070;27;19923;-83
2021/12/05 14:48:06;;;;;;;;;;;5.30;82.60;;;;;;5134188;27;19942;-79
2021/12/05 14:50:48;;;;;;;;;;;5.40;82.50;;;;;;5129216;27;19923;-87
2021/12/05 14:53:18;;;;;;;;;;;5.30;82.40;;;;;;5119080;27;20288;-89
2021/12/05 14:55:47;;;;;;;;;;;5.30;82.50;;;;;;5128909;27;19923;-86
2021/12/05 14:58:15;;;;;;;;;;;5.30;82.40;;;;;;5122940;27;20296;-82
2021/12/05 15:00:46;;;;;;;;;;;5.30;82.50;;;;;;5133921;27;19926;-90
2021/12/05 15:03:17;;;;;;;;;;;5.30;82.50;;;;;;5143888;27;19923;-88
2021/12/05 15:05:48;;;;;;;;;;;5.30;82.80;;;;;;5123857;27;19937;-90
2021/12/05 15:08:18;;;;;;;;;;;5.30;83.00;;;;;;5142070;27;19930;-89
2021/12/05 15:10:47;;;;;;;;;;;5.30;83.20;;;;;;5141349;27;19927;-88
2021/12/05 15:13:16;;;;;;;;;;;5.20;83.30;;;;;;5144860;27;19923;-89
2021/12/05 15:15:44;;;;;;;;;;;5.20;83.40;;;;;;5145853;27;19924;-88
2021/12/05 15:18:17;;;;;;;;;;;5.20;83.50;;;;;;5124671;27;19924;-88
2021/12/05 15:20:45;;;;;;;;;;;5.20;83.50;;;;;;5147457;27;19923;-89
2021/12/05 15:23:14;;;;;;;;;;;5.20;83.40;;;;;;5140440;27;19935;-88
2021/12/05 15:25:43;;;;;;;;;;;5.20;83.50;;;;;;5156109;27;19923;-88
2021/12/05 15:28:12;;;;;;;;;;;5.20;83.60;;;;;;5116780;27;19931;-89
2021/12/05 15:30:42;;;;;;;;;;;5.10;83.60;;;;;;5148355;27;19927;-89
2021/12/05 15:33:11;;;;;;;;;;;5.10;83.70;;;;;;5137953;27;19932;-88
2021/12/05 15:35:39;;;;;;;;;;;5.20;83.70;;;;;;5139670;27;20360;-89
2021/12/05 15:38:08;;;;;;;;;;;5.10;83.80;;;;;;5151223;27;19932;-89
2021/12/05 15:40:43;;;;;;;;;;;5.10;83.90;;;;;;5144340;27;19938;-88
2021/12/05 15:43:12;;;;;;;;;;;5.10;84.10;;;;;;5133519;27;19934;-90
2021/12/05 15:45:42;;;;;;;;;;;5.10;84.00;;;;;;5126497;27;19930;-89
2021/12/05 15:48:09;;;;;;;;;;;5.10;84.00;;;;;;5139345;27;19934;-89
2021/12/05 15:50:40;;;;;;;;;;;5.00;83.80;;;;;;5147736;27;19930;-90
2021/12/05 15:53:11;;;;;;;;;;;5.00;83.90;;;;;;5146767;27;20284;-87
2021/12/05 15:55:41;;;;;;;;;;;5.00;84.00;;;;;;5152489;27;19923;-89
2021/12/05 15:58:10;;;;;;;;;;;4.90;84.10;;;;;;5105744;27;19946;-90
2021/12/05 16:00:41;;;;;;;;;;;4.90;84.20;;;;;;5151198;27;19924;-87
2021/12/05 16:03:11;;;;;;;;;;;4.90;84.20;;;;;;5136508;27;20372;-87
2021/12/05 16:05:40;;;;;;;;;;;4.90;84.10;;;;;;5118259;27;19923;-88
2021/12/05 16:08:12;;;;;;;;;;;4.90;84.20;;;;;;5150282;27;19923;-87
2021/12/05 16:10:46;;;;;;;;;;;4.90;84.40;;;;;;5146486;27;19938;-87
2021/12/05 16:13:16;;;;;;;;;;;4.90;84.60;;;;;;5136230;27;19927;-87
2021/12/05 16:15:45;;;;;;;;;;;4.90;84.60;;;;;;5163064;27;19923;-87
2021/12/05 16:18:13;;;;;;;;;;;4.90;84.70;;;;;;5146601;27;19932;-87
2021/12/05 16:20:45;;;;;;;;;;;4.90;84.60;;;;;;5131386;27;20384;-87
2021/12/05 16:23:19;;;;;;;;;;;4.90;84.80;;;;;;5132743;27;20284;-87
2021/12/05 16:25:46;;;;;;;;;;;4.90;84.80;;;;;;5150385;27;19950;-86
2021/12/05 16:28:14;;;;;;;;;;;4.90;84.70;;;;;;5144679;27;19923;-85
2021/12/05 16:30:46;;;;;;;;;;;4.90;84.50;;;;;;5144926;27;20426;-91
2021/12/05 16:33:15;;;;;;;;;;;4.90;84.70;;;;;;5146802;27;20335;-88
2021/12/05 16:35:46;;;;;;;;;;;4.90;84.50;;;;;;5149219;27;19934;-88
2021/12/05 16:38:33;;;;;;;;;;;4.90;84.60;;;;;;5147150;27;19923;-88
2021/12/05 16:41:10;;;;;;;;;;;4.90;84.50;;;;;;5142555;27;19945;-88
2021/12/05 16:43:48;;;;;;;;;;;4.90;84.60;;;;;;5149476;27;19934;-89
2021/12/05 16:46:19;;;;;;;;;;;4.80;84.70;;;;;;5129824;27;19997;-89
2021/12/05 16:48:47;;;;;;;;;;;4.90;84.80;;;;;;5150827;27;19923;-89
2021/12/05 16:51:19;;;;;;;;;;;4.90;84.80;;;;;;5149422;27;19930;-88
2021/12/05 16:53:48;;;;;;;;;;;4.90;84.90;;;;;;5129350;27;20287;-87
2021/12/05 16:56:33;;;;;;;;;;;4.90;85.00;;;;;;5155082;27;19927;-89
2021/12/05 16:59:21;;;;;;;;;;;4.80;85.00;;;;;;5152825;27;19931;-90
2021/12/05 17:02:06;;;;;;;;;;;4.90;85.00;;;;;;5151390;27;19927;-89
2021/12/05 17:04:56;;;;;;;;;;;4.90;85.00;;;;;;5150003;27;19923;-89
2021/12/05 17:07:43;;;;;;;;;;;4.80;84.90;;;;;;5150340;27;19923;-89
2021/12/05 17:10:28;;;;;;;;;;;4.80;84.90;;;;;;5156386;27;19930;-88
2021/12/05 17:13:07;;;;;;;;;;;4.80;84.90;;;;;;5132807;27;19938;-89
2021/12/05 17:15:36;;;;;;;;;;;4.80;84.90;;;;;;5109997;27;19924;-89
2021/12/05 17:18:12;;;;;;;;;;;4.80;84.90;;;;;;5143970;27;19930;-89
2021/12/05 17:20:46;;;;;;;;;;;4.80;85.00;;;;;;5119045;27;19923;-89
2021/12/05 17:23:22;;;;;;;;;;;4.80;85.10;;;;;;5148174;27;19924;-89
2021/12/05 17:25:51;;;;;;;;;;;4.80;85.00;;;;;;5128734;27;19923;-89
2021/12/05 17:28:29;;;;;;;;;;;4.80;85.00;;;;;;5146695;27;19930;-89
2021/12/05 17:30:59;;;;;;;;;;;4.80;85.00;;;;;;5161510;27;19925;-89
2021/12/05 17:33:32;;;;;;;;;;;4.80;85.10;;;;;;5166737;27;19923;-89
2021/12/05 17:36:18;;;;;;;;;;;4.80;85.30;;;;;;5158573;27;19923;-87
2021/12/05 17:38:47;;;;;;;;;;;4.70;85.30;;;;;;5148416;27;19924;-88
2021/12/05 17:41:15;;;;;;;;;;;4.60;85.30;;;;;;5131850;27;20291;-87
2021/12/05 17:43:42;;;;;;;;;;;4.50;85.30;;;;;;5149576;27;19924;-88
2021/12/05 17:46:10;;;;;;;;;;;4.50;85.50;;;;;;5138636;27;19923;-89
2021/12/05 17:48:38;;;;;;;;;;;4.40;85.70;;;;;;5139531;27;19923;-89
2021/12/05 17:51:36;;;;;;;;;;;4.40;85.90;;;;;;5131833;27;20398;-89
2021/12/05 17:54:05;;;;;;;;;;;4.30;86.00;;;;;;5159358;27;19930;-89
2021/12/05 17:56:43;;;;;;;;;;;4.30;86.20;;;;;;5163564;27;20360;-88
2021/12/05 17:59:13;;;;;;;;;;;4.30;86.20;;;;;;5121208;27;19923;-88
2021/12/05 18:04:30;;;;;;;;;;;4.40;86.30;;;;;;5149463;27;19930;-88
2021/12/05 18:06:58;;;;;;;;;;;4.30;86.20;;;;;;5131590;27;19924;-88
2021/12/05 18:09:25;;;;;;;;;;;4.30;86.40;;;;;;5134734;27;19923;-88
2021/12/05 18:11:53;;;;;;;;;;;4.30;86.60;;;;;;5152083;27;19927;-89
2021/12/05 18:14:20;;;;;;;;;;;4.30;86.70;;;;;;5154347;27;19923;-89
2021/12/05 18:16:49;;;;;;;;;;;4.30;86.80;;;;;;5146280;27;20361;-89
2021/12/05 18:19:18;;;;;;;;;;;4.20;86.80;;;;;;5141127;27;19923;-87
2021/12/05 18:21:48;;;;;;;;;;;4.20;86.90;;;;;;5130815;27;19934;-88
2021/12/05 18:24:18;;;;;;;;;;;4.10;87.00;;;;;;5130448;27;20308;-89
2021/12/05 18:26:46;;;;;;;;;;;4.00;87.10;;;;;;5126101;27;19927;-88
2021/12/05 18:29:16;;;;;;;;;;;4.00;87.20;;;;;;5142008;27;19927;-88
2021/12/05 18:31:44;;;;;;;;;;;3.90;87.30;;;;;;5144492;27;19930;-88
2021/12/05 18:34:16;;;;;;;;;;;3.80;87.50;;;;;;5131609;27;19931;-88
2021/12/05 18:36:45;;;;;;;;;;;3.80;87.60;;;;;;5148648;27;20268;-89
2021/12/05 18:39:18;;;;;;;;;;;3.70;87.80;;;;;;5131010;27;19950;-87
2021/12/05 18:41:45;;;;;;;;;;;3.60;87.90;;;;;;5147282;27;19934;-88
2021/12/05 18:44:17;;;;;;;;;;;3.40;88.10;;;;;;5143383;27;19927;-89
2021/12/05 18:46:45;;;;;;;;;;;3.30;88.20;;;;;;5139941;27;20312;-89
2021/12/05 18:49:14;;;;;;;;;;;3.30;88.40;;;;;;5146406;27;19927;-89
2021/12/05 18:51:42;;;;;;;;;;;3.20;88.60;;;;;;5130293;27;19930;-89
2021/12/05 18:54:10;;;;;;;;;;;3.10;88.80;;;;;;5141883;27;19923;-90
2021/12/05 18:56:37;;;;;;;;;;;3.10;88.90;;;;;;5148378;27;20399;-89
2021/12/05 18:59:05;;;;;;;;;;;3.10;89.00;;;;;;5123512;27;20281;-87
2021/12/05 19:06:51;;;;;;;;;;;3.20;89.30;;;;;;5129839;27;20399;-87
2021/12/05 19:11:53;;;;;;;;;;;3.30;89.30;;;;;;5139442;27;19923;-84
2021/12/05 19:14:23;;;;;;;;;;;3.30;89.30;;;;;;5122522;27;19927;-85
2021/12/05 19:16:52;;;;;;;;;;;3.30;89.20;;;;;;5119454;27;19927;-84
2021/12/05 19:19:20;;;;;;;;;;;3.30;89.20;;;;;;5125798;27;20372;-86
2021/12/05 19:21:48;;;;;;;;;;;3.20;89.20;;;;;;5139528;27;19930;-85
2021/12/05 19:24:17;;;;;;;;;;;3.20;89.40;;;;;;5138437;27;19931;-84
2021/12/05 19:26:45;;;;;;;;;;;3.10;89.50;;;;;;5141836;27;19923;-85
2021/12/05 19:29:16;;;;;;;;;;;3.10;89.60;;;;;;5138186;27;19923;-85
2021/12/05 19:31:44;;;;;;;;;;;3.10;89.60;;;;;;5150632;27;19930;-85
2021/12/05 19:34:11;;;;;;;;;;;3.20;89.70;;;;;;5156833;27;19927;-85
2021/12/05 19:36:39;;;;;;;;;;;3.20;89.70;;;;;;5143195;27;19930;-85
2021/12/05 19:39:06;;;;;;;;;;;3.30;89.70;;;;;;5138012;27;20391;-85
2021/12/05 19:41:34;;;;;;;;;;;3.30;89.70;;;;;;5139308;27;19923;-84
2021/12/05 19:44:02;;;;;;;;;;;3.30;89.70;;;;;;5120510;27;19931;-83
2021/12/05 19:46:30;;;;;;;;;;;3.20;89.60;;;;;;5143230;27;19923;-84
2021/12/05 19:48:58;;;;;;;;;;;3.20;89.70;;;;;;5139382;27;19923;-85
2021/12/05 19:51:27;;;;;;;;;;;3.10;89.70;;;;;;5144570;27;19927;-84
2021/12/05 19:53:55;;;;;;;;;;;3.00;89.80;;;;;;5124881;27;20322;-85
2021/12/05 19:56:24;;;;;;;;;;;2.90;90.00;;;;;;5109792;27;19931;-85
2021/12/05 19:58:52;;;;;;;;;;;2.90;90.20;;;;;;5123607;27;19924;-84
2021/12/05 20:01:20;;;;;;;;;;;2.80;90.10;;;;;;5151136;27;19923;-86
2021/12/05 20:03:48;;;;;;;;;;;2.70;90.20;;;;;;5105947;27;19931;-84
2021/12/05 20:06:16;;;;;;;;;;;2.60;90.40;;;;;;5127227;27;19923;-83
2021/12/05 20:08:45;;;;;;;;;;;2.60;90.70;;;;;;5109518;27;19931;-84
2021/12/05 20:11:13;;;;;;;;;;;2.60;90.90;;;;;;5142957;27;19924;-84
2021/12/05 20:13:40;;;;;;;;;;;2.70;91.00;;;;;;5145622;27;19923;-83
2021/12/05 20:16:09;;;;;;;;;;;2.70;90.90;;;;;;5146617;27;19928;-85
2021/12/05 20:18:36;;;;;;;;;;;2.80;90.90;;;;;;5128792;27;20182;-84
2021/12/05 20:21:05;;;;;;;;;;;2.80;90.90;;;;;;5146876;27;19930;-84
2021/12/05 20:23:34;;;;;;;;;;;2.90;90.80;;;;;;5145652;27;19930;-82
2021/12/05 20:26:02;;;;;;;;;;;2.90;90.70;;;;;;5145399;27;20303;-82
2021/12/05 20:28:29;;;;;;;;;;;2.90;90.70;;;;;;5146972;27;20327;-84